createdAt,value
2018-08-13T00:00:01.793Z,71.20
2018-08-13T00:02:29.565Z,71.30
2018-08-13T00:04:57.364Z,71.10
2018-08-13T00:07:25.085Z,71.30
2018-08-13T00:09:52.861Z,71.70
2018-08-13T00:12:20.631Z,71.90
2018-08-13T00:14:48.399Z,72.00
2018-08-13T00:17:16.144Z,72.20
2018-08-13T00:19:43.949Z,72.50
2018-08-13T00:22:11.680Z,72.90
2018-08-13T00:24:39.464Z,72.90
2018-08-13T00:27:07.242Z,73.10
2018-08-13T00:29:35.010Z,73.80
2018-08-13T00:32:02.748Z,74.30
2018-08-13T00:34:30.536Z,74.40
2018-08-13T00:36:58.269Z,74.50
2018-08-13T00:39:25.997Z,74.80
2018-08-13T00:41:54.750Z,75.30
2018-08-13T00:44:22.484Z,75.60
2018-08-13T00:46:50.253Z,75.90
2018-08-13T00:49:18.021Z,76.30
2018-08-13T00:51:45.772Z,76.70
2018-08-13T00:54:13.570Z,77.30
2018-08-13T00:56:41.328Z,78.50
2018-08-13T00:59:09.049Z,78.10
2018-08-13T01:01:36.847Z,78.20
2018-08-13T01:04:04.632Z,78.90
2018-08-13T01:06:32.333Z,79.50
2018-08-13T01:09:00.165Z,79.80
2018-08-13T01:11:27.903Z,79.90
2018-08-13T01:13:55.658Z,80.30
2018-08-13T01:16:23.404Z,80.70
2018-08-13T01:18:51.216Z,81.00
2018-08-13T01:21:18.988Z,81.60
2018-08-13T01:23:46.708Z,82.50
2018-08-13T01:26:14.516Z,82.00
2018-08-13T01:28:42.216Z,82.50
2018-08-13T01:31:09.986Z,83.70
2018-08-13T01:33:37.777Z,83.70
2018-08-13T01:36:05.574Z,84.00
2018-08-13T01:38:34.340Z,84.30
2018-08-13T01:41:03.109Z,84.20
2018-08-13T01:43:30.909Z,84.50
2018-08-13T01:45:58.624Z,85.40
2018-08-13T01:48:26.408Z,84.50
2018-08-13T01:50:54.209Z,84.90
2018-08-13T01:53:21.966Z,85.10
2018-08-13T01:55:49.712Z,84.60
2018-08-13T01:58:19.212Z,84.00
2018-08-13T02:00:47.681Z,83.80
2018-08-13T02:03:16.181Z,84.20
2018-08-13T02:05:44.668Z,84.30
2018-08-13T02:08:13.297Z,84.20
2018-08-13T02:10:41.805Z,84.10
2018-08-13T02:13:10.353Z,84.00
2018-08-13T02:15:39.909Z,84.80
2018-08-13T02:18:08.836Z,84.80
2018-08-13T02:20:37.361Z,85.40
2018-08-13T02:23:05.927Z,85.90
2018-08-13T02:25:34.436Z,85.60
2018-08-13T02:28:02.976Z,85.70
2018-08-13T02:30:30.692Z,86.70
2018-08-13T02:32:59.145Z,87.20
2018-08-13T02:35:27.701Z,88.30
2018-08-13T02:37:57.238Z,88.90
2018-08-13T02:40:25.779Z,87.60
2018-08-13T02:42:54.342Z,85.80
2018-08-13T02:45:22.779Z,85.00
2018-08-13T02:47:51.297Z,84.30
2018-08-13T02:50:20.846Z,85.20
2018-08-13T02:52:49.381Z,85.10
2018-08-13T02:55:17.821Z,86.10
2018-08-13T02:57:46.338Z,86.10
2018-08-13T03:00:14.890Z,86.50
2018-08-13T03:02:43.434Z,86.30
2018-08-13T03:05:12.866Z,85.60
2018-08-13T03:07:41.887Z,85.00
2018-08-13T03:10:12.361Z,85.30
2018-08-13T03:12:41.328Z,87.00
2018-08-13T03:15:14.617Z,86.70
2018-08-13T03:17:43.329Z,86.80
2018-08-13T03:20:11.873Z,87.30
2018-08-13T03:22:40.408Z,88.00
2018-08-13T03:25:10.221Z,88.40
2018-08-13T03:27:39.736Z,88.60
2018-08-13T03:30:10.314Z,89.50
2018-08-13T03:32:39.113Z,90.00
2018-08-13T03:35:07.764Z,90.50
2018-08-13T03:37:36.380Z,90.50
2018-08-13T03:40:07.485Z,90.70
2018-08-13T03:42:35.989Z,91.10
2018-08-13T03:45:06.465Z,91.50
2018-08-13T03:47:35.060Z,91.60
2018-08-13T03:50:03.645Z,91.20
2018-08-13T03:52:32.184Z,91.20
2018-08-13T03:55:00.658Z,91.40
2018-08-13T03:57:30.173Z,91.60
2018-08-13T03:59:58.868Z,92.00
2018-08-13T04:02:27.420Z,92.20
2018-08-13T04:04:55.912Z,92.70
2018-08-13T04:07:24.456Z,93.00
2018-08-13T04:09:52.978Z,92.80
2018-08-13T04:12:21.450Z,93.20
2018-08-13T04:14:49.988Z,93.60
2018-08-13T04:17:18.533Z,92.60
2018-08-13T04:19:47.996Z,91.50
2018-08-13T04:22:16.565Z,91.30
2018-08-13T04:24:45.085Z,91.30
2018-08-13T04:27:13.576Z,91.30
2018-08-13T04:29:42.049Z,91.40
2018-08-13T04:32:10.585Z,91.80
2018-08-13T04:34:40.109Z,92.10
2018-08-13T04:37:08.629Z,92.90
2018-08-13T04:39:37.081Z,93.40
2018-08-13T04:42:05.685Z,93.80
2018-08-13T04:44:34.245Z,93.80
2018-08-13T04:47:02.718Z,93.70
2018-08-13T04:49:31.192Z,94.00
2018-08-13T04:53:29.252Z,95.30
2018-08-13T04:55:57.769Z,96.00
2018-08-13T04:58:26.249Z,98.00
2018-08-13T05:00:54.797Z,99.70
2018-08-13T05:03:24.273Z,99.90
2018-08-13T05:05:52.764Z,99.90
2018-08-13T05:08:21.257Z,99.90
2018-08-13T05:10:50.085Z,99.90
2018-08-13T05:13:18.609Z,99.90
2018-08-13T05:15:47.080Z,99.80
2018-08-13T05:18:15.625Z,99.90
2018-08-13T05:20:45.198Z,99.90
2018-08-13T05:23:13.737Z,99.60
2018-08-13T05:25:42.248Z,99.50
2018-08-13T05:28:10.783Z,99.80
2018-08-13T05:30:39.293Z,99.80
2018-08-13T05:33:07.801Z,99.70
2018-08-13T05:35:36.336Z,99.50
2018-08-13T05:38:04.884Z,98.50
2018-08-13T05:40:33.504Z,97.50
2018-08-13T05:43:01.981Z,96.50
2018-08-13T05:45:30.522Z,96.80
2018-08-13T05:47:59.075Z,97.40
2018-08-13T05:50:27.540Z,97.60
2018-08-13T05:52:56.066Z,96.30
2018-08-13T05:55:24.632Z,96.50
2018-08-13T05:57:53.169Z,94.90
2018-08-13T06:00:21.745Z,93.90
2018-08-13T06:02:50.264Z,93.90
2018-08-13T06:05:18.801Z,93.60
2018-08-13T06:07:47.299Z,92.60
2018-08-13T06:10:15.846Z,92.10
2018-08-13T06:12:44.457Z,92.00
2018-08-13T06:15:14.138Z,92.30
2018-08-13T06:17:42.729Z,92.80
2018-08-13T06:20:12.588Z,92.90
2018-08-13T06:22:42.312Z,92.50
2018-08-13T06:25:11.656Z,91.10
2018-08-13T06:27:40.265Z,91.30
2018-08-13T06:30:12.275Z,91.50
2018-08-13T06:32:41.572Z,91.40
2018-08-13T06:35:10.677Z,90.90
2018-08-13T06:37:39.230Z,91.10
2018-08-13T06:40:08.557Z,90.90
2018-08-13T06:42:37.317Z,90.10
2018-08-13T06:45:07.001Z,90.00
2018-08-13T06:47:36.935Z,90.10
2018-08-13T06:50:06.928Z,89.00
2018-08-13T06:52:35.452Z,87.90
2018-08-13T06:55:05.521Z,84.90
2018-08-13T06:57:34.384Z,81.30
2018-08-13T07:00:03.309Z,81.60
2018-08-13T07:02:31.833Z,82.70
2018-08-13T07:05:00.335Z,83.70
2018-08-13T07:07:28.886Z,83.20
2018-08-13T07:09:57.465Z,83.20
2018-08-13T07:12:25.981Z,82.10
2018-08-13T07:14:54.508Z,83.60
2018-08-13T07:17:23.056Z,83.80
2018-08-13T07:19:51.697Z,82.60
2018-08-13T07:22:21.029Z,81.40
2018-08-13T07:24:49.553Z,82.50
2018-08-13T07:27:19.021Z,81.40
2018-08-13T07:29:47.453Z,80.70
2018-08-13T07:32:17.026Z,81.20
2018-08-13T07:34:45.578Z,80.50
2018-08-13T07:37:14.050Z,80.50
2018-08-13T07:39:42.581Z,79.70
2018-08-13T07:42:12.067Z,79.30
2018-08-13T07:44:40.565Z,79.80
2018-08-13T07:47:09.153Z,79.50
2018-08-13T07:49:37.769Z,79.50
2018-08-13T07:52:07.394Z,77.50
2018-08-13T07:54:35.905Z,76.30
2018-08-13T07:57:04.482Z,75.80
2018-08-13T07:59:33.097Z,76.20
2018-08-13T08:02:01.658Z,75.70
2018-08-13T08:04:30.321Z,74.50
2018-08-13T08:06:59.089Z,73.60
2018-08-13T08:09:27.586Z,71.50
2018-08-13T08:11:56.132Z,70.40
2018-08-13T08:14:24.694Z,70.30
2018-08-13T08:16:54.204Z,69.80
2018-08-13T08:19:23.963Z,69.40
2018-08-13T08:21:52.530Z,70.10
2018-08-13T08:24:21.098Z,70.30
2018-08-13T08:26:49.725Z,69.70
2018-08-13T08:29:18.404Z,69.70
2018-08-13T08:31:46.890Z,69.60
2018-08-13T08:34:16.473Z,70.20
2018-08-13T08:36:45.031Z,68.00
2018-08-13T08:39:15.628Z,67.00
2018-08-13T08:41:45.511Z,68.00
2018-08-13T08:44:15.081Z,67.60
2018-08-13T08:46:43.681Z,66.70
2018-08-13T08:49:13.218Z,65.80
2018-08-13T08:51:41.668Z,64.90
2018-08-13T08:54:11.105Z,66.30
2018-08-13T08:56:39.556Z,65.30
2018-08-13T08:59:09.541Z,65.90
2018-08-13T09:01:38.377Z,67.30
2018-08-13T09:04:08.182Z,67.40
2018-08-13T09:06:36.877Z,68.10
2018-08-13T09:09:09.329Z,65.90
2018-08-13T09:11:37.913Z,64.70
2018-08-13T09:14:07.186Z,65.60
2018-08-13T09:16:35.645Z,64.30
2018-08-13T09:19:16.550Z,63.60
2018-08-13T09:21:45.013Z,65.20
2018-08-13T09:24:24.977Z,62.70
2018-08-13T09:27:04.675Z,61.10
2018-08-13T09:29:44.438Z,61.30
2018-08-13T09:32:31.533Z,59.80
2018-08-13T09:35:15.637Z,62.40
2018-08-13T09:37:44.111Z,61.50
2018-08-13T09:40:12.601Z,63.50
2018-08-13T09:42:42.120Z,61.80
2018-08-13T09:45:10.652Z,60.40
2018-08-13T09:47:39.760Z,62.00
2018-08-13T09:50:17.132Z,59.10
2018-08-13T09:52:46.247Z,60.80
2018-08-13T09:55:15.434Z,61.50
2018-08-13T09:57:45.148Z,60.70
2018-08-13T10:00:24.099Z,61.80
2018-08-13T10:02:54.070Z,59.40
2018-08-13T10:05:24.644Z,57.80
2018-08-13T10:07:54.147Z,57.10
2018-08-13T10:10:22.572Z,56.70
2018-08-13T10:12:51.045Z,57.80
2018-08-13T10:15:19.521Z,57.20
2018-08-13T10:17:48.061Z,55.10
2018-08-13T10:20:21.198Z,54.20
2018-08-13T10:22:49.731Z,56.00
2018-08-13T10:25:18.280Z,56.30
2018-08-13T10:27:47.845Z,56.00
2018-08-13T10:30:17.290Z,54.80
2018-08-13T10:32:46.217Z,54.70
2018-08-13T10:35:14.701Z,53.80
2018-08-13T10:37:43.498Z,53.70
2018-08-13T10:40:13.411Z,53.80
2018-08-13T10:42:41.119Z,52.90
2018-08-13T10:45:08.856Z,53.70
2018-08-13T10:47:36.553Z,53.40
2018-08-13T10:50:05.037Z,53.00
2018-08-13T10:52:32.725Z,53.30
2018-08-13T10:55:00.517Z,52.60
2018-08-13T10:57:28.261Z,51.40
2018-08-13T10:59:56.037Z,52.00
2018-08-13T11:02:23.769Z,48.70
2018-08-13T11:04:51.612Z,46.40
2018-08-13T11:07:19.456Z,45.60
2018-08-13T11:09:47.128Z,43.90
2018-08-13T11:12:14.881Z,45.70
2018-08-13T11:14:42.593Z,45.50
2018-08-13T11:17:10.352Z,45.30
2018-08-13T11:19:38.128Z,45.20
2018-08-13T11:22:06.096Z,44.70
2018-08-13T11:24:33.857Z,44.90
2018-08-13T11:27:01.661Z,44.30
2018-08-13T11:29:29.368Z,44.60
2018-08-13T11:31:57.072Z,43.80
2018-08-13T11:34:24.776Z,43.80
2018-08-13T11:36:53.768Z,44.20
2018-08-13T11:39:22.511Z,43.30
2018-08-13T11:41:50.324Z,42.90
2018-08-13T11:44:18.061Z,42.70
2018-08-13T11:46:45.785Z,44.30
2018-08-13T11:49:13.556Z,44.40
2018-08-13T11:51:41.295Z,42.20
2018-08-13T11:54:09.107Z,43.00
2018-08-13T11:56:36.917Z,44.70
2018-08-13T11:59:04.767Z,39.70
2018-08-13T12:01:32.473Z,40.80
2018-08-13T12:04:00.292Z,36.10
2018-08-13T12:06:28.018Z,39.10
2018-08-13T12:08:55.768Z,37.60
2018-08-13T12:11:23.577Z,37.30
2018-08-13T12:13:51.413Z,37.40
2018-08-13T12:16:19.204Z,36.00
2018-08-13T12:18:46.893Z,35.60
2018-08-13T12:21:14.573Z,35.40
2018-08-13T12:23:42.348Z,34.40
2018-08-13T12:26:10.160Z,34.90
2018-08-13T12:28:38.953Z,35.40
2018-08-13T12:31:06.672Z,35.70
2018-08-13T12:33:34.477Z,35.60
2018-08-13T12:36:02.228Z,35.30
2018-08-13T12:38:29.952Z,34.70
2018-08-13T12:40:57.814Z,38.30
2018-08-13T12:43:25.544Z,35.70
2018-08-13T12:45:53.293Z,36.50
2018-08-13T12:48:21.072Z,36.00
2018-08-13T12:50:48.827Z,37.40
2018-08-13T12:53:16.553Z,36.50
2018-08-13T12:55:45.274Z,39.00
2018-08-13T12:58:12.981Z,36.60
2018-08-13T13:00:40.821Z,34.50
2018-08-13T13:03:08.520Z,33.50
2018-08-13T13:05:37.257Z,32.30
2018-08-13T13:08:04.972Z,32.10
2018-08-13T13:10:32.800Z,30.90
2018-08-13T13:13:00.495Z,33.30
2018-08-13T13:20:05.648Z,32.70
2018-08-13T13:22:34.339Z,32.20
2018-08-13T13:25:02.161Z,33.50
2018-08-13T13:27:30.029Z,32.80
2018-08-13T13:29:57.781Z,32.90
2018-08-13T13:32:25.567Z,33.60
2018-08-13T13:34:53.290Z,35.40
2018-08-13T13:37:21.068Z,35.40
2018-08-13T13:39:49.841Z,35.00
2018-08-13T13:42:17.693Z,33.90
2018-08-13T13:44:45.748Z,33.80
2018-08-13T13:47:14.469Z,34.40
2018-08-13T13:49:42.242Z,33.00
2018-08-13T13:52:10.019Z,32.90
2018-08-13T13:54:37.766Z,32.70
2018-08-13T13:57:05.665Z,34.20
2018-08-13T13:59:33.381Z,33.20
2018-08-13T14:02:01.196Z,33.50
2018-08-13T14:04:29.225Z,33.90
2018-08-13T14:06:58.022Z,34.10
2018-08-13T14:09:25.804Z,35.40
2018-08-13T14:11:53.544Z,34.90
2018-08-13T14:14:21.350Z,35.70
2018-08-13T14:16:49.259Z,34.00
2018-08-13T14:19:17.072Z,34.50
2018-08-13T14:21:44.888Z,35.40
2018-08-13T14:24:12.715Z,35.00
2018-08-13T14:26:41.447Z,35.40
2018-08-13T14:29:09.250Z,31.90
2018-08-13T14:31:37.012Z,31.60
2018-08-13T14:34:04.805Z,31.80
2018-08-13T14:36:32.584Z,31.70
2018-08-13T14:39:00.460Z,32.50
2018-08-13T14:41:28.180Z,31.60
2018-08-13T14:43:55.941Z,31.90
2018-08-13T14:46:23.690Z,30.60
2018-08-13T14:48:51.494Z,29.60
2018-08-13T14:51:19.297Z,31.40
2018-08-13T14:53:46.976Z,31.10
2018-08-13T14:56:14.764Z,31.30
2018-08-13T14:58:42.547Z,32.00
2018-08-13T15:01:10.289Z,33.20
2018-08-13T15:03:38.032Z,31.10
2018-08-13T15:06:06.046Z,29.90
2018-08-13T15:08:34.797Z,28.20
2018-08-13T15:11:02.594Z,28.30
2018-08-13T15:13:30.364Z,29.50
2018-08-13T15:15:58.073Z,28.30
2018-08-13T15:18:25.861Z,30.00
2018-08-13T15:20:53.661Z,28.60
2018-08-13T15:23:21.364Z,29.00
2018-08-13T15:25:49.186Z,27.80
2018-08-13T15:28:16.940Z,27.80
2018-08-13T15:30:44.817Z,28.60
2018-08-13T15:33:12.556Z,28.50
2018-08-13T15:35:40.340Z,29.30
2018-08-13T15:38:08.120Z,27.40
2018-08-13T15:40:35.836Z,26.70
2018-08-13T15:43:03.747Z,26.40
2018-08-13T15:45:31.484Z,26.60
2018-08-13T15:47:59.387Z,26.40
2018-08-13T15:50:27.057Z,26.60
2018-08-13T15:52:54.804Z,26.30
2018-08-13T15:55:22.567Z,26.50
2018-08-13T15:57:50.296Z,27.30
2018-08-13T16:00:19.677Z,27.80
2018-08-13T16:02:47.860Z,27.60
2018-08-13T16:05:15.653Z,27.70
2018-08-13T16:07:43.444Z,27.40
2018-08-13T16:10:11.816Z,27.70
2018-08-13T16:12:39.716Z,28.00
2018-08-13T16:15:08.045Z,28.80
2018-08-13T16:17:36.432Z,28.60
2018-08-13T16:20:05.067Z,28.40
2018-08-13T16:22:32.845Z,29.00
2018-08-13T16:25:00.651Z,29.20
2018-08-13T16:27:28.396Z,29.70
2018-08-13T16:29:56.193Z,30.00
2018-08-13T16:32:23.924Z,31.30
2018-08-13T16:34:51.724Z,32.10
2018-08-13T16:37:19.474Z,32.90
2018-08-13T16:39:47.300Z,34.10
2018-08-13T16:42:15.116Z,34.70
2018-08-13T16:44:42.808Z,35.20
2018-08-13T16:47:10.628Z,35.50
2018-08-13T16:49:38.381Z,35.90
2018-08-13T16:52:07.198Z,36.30
2018-08-13T16:54:34.927Z,37.00
2018-08-13T16:57:02.730Z,37.50
2018-08-13T16:59:30.581Z,38.40
2018-08-13T17:01:58.295Z,38.30
2018-08-13T17:04:26.133Z,39.00
2018-08-13T17:06:54.856Z,39.10
2018-08-13T17:09:22.690Z,39.80
2018-08-13T17:11:50.393Z,40.00
2018-08-13T17:14:18.274Z,41.10
2018-08-13T17:16:46.373Z,41.80
2018-08-13T17:19:14.157Z,42.00
2018-08-13T17:21:41.895Z,42.00
2018-08-13T17:24:10.893Z,43.50
2018-08-13T17:26:38.712Z,43.30
2018-08-13T17:29:06.641Z,43.70
2018-08-13T17:31:34.401Z,44.20
2018-08-13T17:34:02.167Z,43.70
2018-08-13T17:36:29.948Z,43.50
2018-08-13T17:38:57.697Z,43.60
2018-08-13T17:41:25.450Z,43.90
2018-08-13T17:43:53.180Z,44.00
2018-08-13T17:46:21.002Z,44.10
2018-08-13T17:48:48.738Z,44.50
2018-08-13T17:51:16.527Z,44.90
2018-08-13T17:53:44.334Z,45.50
2018-08-13T17:56:12.117Z,45.90
2018-08-13T17:58:39.882Z,46.10
2018-08-13T18:01:07.916Z,45.70
2018-08-13T18:03:36.082Z,45.70
2018-08-13T18:06:04.138Z,47.00
2018-08-13T18:08:31.914Z,47.50
2018-08-13T18:10:59.679Z,48.10
2018-08-13T18:13:27.378Z,48.30
2018-08-13T18:15:55.148Z,48.30
2018-08-13T18:18:24.009Z,48.10
2018-08-13T18:20:51.807Z,48.30
2018-08-13T18:23:19.649Z,48.60
2018-08-13T18:25:48.745Z,49.10
2018-08-13T18:28:16.796Z,49.60
2018-08-13T18:30:44.764Z,49.40
2018-08-13T18:33:12.945Z,50.50
2018-08-13T18:35:40.800Z,51.20
2018-08-13T18:38:08.643Z,51.90
2018-08-13T18:40:36.434Z,52.10
2018-08-13T18:43:04.324Z,52.50
2018-08-13T18:45:32.113Z,52.90
2018-08-13T18:48:00.132Z,53.30
2018-08-13T18:50:27.895Z,53.60
2018-08-13T18:52:55.744Z,53.70
2018-08-13T18:55:24.054Z,53.80
2018-08-13T18:57:52.213Z,53.60
2018-08-13T19:00:24.884Z,53.10
2018-08-13T19:02:53.977Z,53.20
2018-08-13T19:05:22.158Z,53.30
2018-08-13T19:07:50.209Z,53.20
2018-08-13T19:10:18.733Z,52.40
2018-08-13T19:12:46.541Z,52.20
2018-08-13T19:15:16.252Z,52.00
2018-08-13T19:17:51.552Z,51.90
2018-08-13T19:20:19.445Z,52.50
2018-08-13T19:22:47.464Z,52.00
2018-08-13T19:25:16.752Z,51.80
2018-08-13T19:27:44.886Z,52.40
2018-08-13T19:30:14.146Z,52.70
2018-08-13T19:32:41.870Z,52.90
2018-08-13T19:35:10.093Z,53.30
2018-08-13T19:37:38.282Z,54.00
2018-08-13T19:40:08.241Z,54.40
2018-08-13T19:42:36.020Z,55.00
2018-08-13T19:45:04.100Z,55.20
2018-08-13T19:47:31.870Z,55.10
2018-08-13T19:49:59.636Z,55.70
2018-08-13T19:52:28.420Z,56.10
2018-08-13T19:54:56.147Z,56.20
2018-08-13T19:57:23.904Z,55.80
2018-08-13T19:59:51.657Z,55.00
2018-08-13T20:02:19.436Z,53.80
2018-08-13T20:04:47.214Z,53.10
2018-08-13T20:07:15.997Z,52.60
2018-08-13T20:09:43.813Z,52.00
2018-08-13T20:12:11.526Z,51.40
2018-08-13T20:14:39.291Z,51.40
2018-08-13T20:17:07.205Z,51.60
2018-08-13T20:19:35.062Z,52.10
2018-08-13T20:22:02.965Z,53.20
2018-08-13T20:24:31.482Z,54.70
2018-08-13T20:27:00.218Z,55.70
2018-08-13T20:29:28.046Z,57.00
2018-08-13T20:31:55.818Z,58.40
2018-08-13T20:34:23.513Z,58.90
2018-08-13T20:36:51.373Z,59.60
2018-08-13T20:39:19.064Z,60.50
2018-08-13T20:41:46.838Z,61.10
2018-08-13T20:44:14.641Z,61.30
2018-08-13T20:46:42.405Z,61.80
2018-08-13T20:49:10.697Z,62.30
2018-08-13T20:51:38.412Z,63.00
2018-08-13T20:54:06.824Z,63.80
2018-08-13T20:56:35.996Z,64.60
2018-08-13T20:59:04.158Z,65.00
2018-08-13T21:01:32.397Z,65.80
2018-08-13T21:04:00.141Z,66.30
2018-08-13T21:06:28.889Z,66.60
2018-08-13T21:08:56.688Z,67.00
2018-08-13T21:11:24.428Z,67.50
2018-08-13T21:13:52.185Z,67.80
2018-08-13T21:16:21.758Z,68.20
2018-08-13T21:18:49.532Z,68.80
2018-08-13T21:21:17.328Z,69.70
2018-08-13T21:23:45.057Z,70.30
2018-08-13T21:26:12.883Z,70.50
2018-08-13T21:28:40.604Z,70.60
2018-08-13T21:31:08.395Z,70.90
2018-08-13T21:33:36.117Z,71.10
2018-08-13T21:36:03.924Z,71.50
2018-08-13T21:38:31.693Z,71.90
2018-08-13T21:40:59.449Z,72.60
2018-08-13T21:43:27.173Z,74.00
2018-08-13T21:45:55.010Z,74.00
2018-08-13T21:48:22.720Z,74.50
2018-08-13T21:50:51.408Z,74.90
2018-08-13T21:53:19.216Z,75.60
2018-08-13T21:55:46.948Z,76.60
2018-08-13T21:58:14.700Z,76.90
2018-08-13T22:00:48.053Z,77.40
2018-08-13T22:03:15.816Z,77.60
2018-08-13T22:05:43.513Z,78.40
2018-08-13T22:08:11.364Z,79.60
2018-08-13T22:10:39.180Z,80.80
2018-08-13T22:13:06.921Z,81.90
2018-08-13T22:15:34.735Z,82.00
2018-08-13T22:18:03.823Z,82.30
2018-08-13T22:20:32.404Z,82.50
2018-08-13T22:23:00.986Z,83.20
2018-08-13T22:25:29.785Z,84.00
2018-08-13T22:27:58.210Z,83.50
2018-08-13T22:30:26.343Z,83.80
2018-08-13T22:32:54.113Z,84.20
2018-08-13T22:35:21.858Z,84.30
2018-08-13T22:37:49.625Z,86.10
2018-08-13T22:40:20.825Z,86.30
2018-08-13T22:42:49.745Z,86.50
2018-08-13T22:45:19.016Z,87.60
2018-08-13T22:47:46.824Z,86.70
2018-08-13T22:50:14.612Z,87.00
2018-08-13T22:52:42.368Z,87.60
2018-08-13T22:55:11.029Z,87.00
2018-08-13T22:57:39.931Z,87.60
2018-08-13T23:00:11.713Z,88.60
2018-08-13T23:02:39.512Z,90.20
2018-08-13T23:05:09.293Z,90.50
2018-08-13T23:07:37.933Z,91.30
2018-08-13T23:10:07.350Z,91.90
2018-08-13T23:12:35.323Z,92.10
2018-08-13T23:15:03.106Z,91.90
2018-08-13T23:17:31.868Z,92.50
2018-08-13T23:19:59.636Z,93.20
2018-08-13T23:22:31.792Z,93.20
2018-08-13T23:24:59.545Z,92.90
2018-08-13T23:27:28.308Z,93.20
2018-08-13T23:29:56.116Z,93.20
2018-08-13T23:32:23.844Z,92.90
2018-08-13T23:34:51.655Z,93.00
2018-08-13T23:37:19.365Z,92.80
2018-08-13T23:39:47.165Z,92.80
2018-08-13T23:42:14.912Z,92.30
2018-08-13T23:44:42.731Z,93.00
2018-08-13T23:47:12.424Z,93.60
2018-08-13T23:49:40.165Z,93.30
2018-08-13T23:52:07.953Z,93.60
2018-08-13T23:54:35.761Z,93.40
2018-08-13T23:57:03.644Z,93.00
2018-08-13T23:59:31.408Z,93.30
